| time (UTC) | temp F | wind direction | speed knots | gust knots | rain 1hr in | rain 24hr in | rain mn in | humidity % | barometer mb |
| 20260505070303 | 55 | 59 | 24.3 | 33.0 | 0.00 | 0.00 | 0.00 | 51 | 999.1 |
| 20260505065804 | 55 | 49 | 20.9 | 30.4 | 0.00 | 0.00 | 0.00 | 52 | 999.1 |
| 20260505065304 | 55 | 52 | 25.2 | 30.4 | 0.00 | 0.00 | 0.00 | 52 | 999.0 |
| 20260505064502 | 56 | 40 | 19.1 | 26.9 | 0.00 | 0.00 | 0.00 | 52 | 999.1 |
| 20260505064304 | 56 | 55 | 20.0 | 26.9 | 0.00 | 0.00 | 0.00 | 51 | 998.9 |
| 20260505063804 | 56 | 50 | 19.1 | 26.9 | 0.00 | 0.00 | 0.00 | 51 | 998.8 |
| 20260505063304 | 57 | 51 | 21.7 | 26.9 | 0.00 | 0.00 | 0.00 | 51 | 999.0 |
| 20260505063103 | 56 | 59 | 20.0 | 27.8 | 0.00 | 0.00 | 0.00 | 51 | 999.0 |
| 20260505062305 | 57 | 58 | 19.1 | 26.9 | 0.00 | 0.00 | 0.00 | 51 | 998.7 |
| 20260505061804 | 57 | 61 | 19.1 | 26.1 | 0.00 | 0.00 | 0.00 | 51 | 998.6 |
| 20260505061503 | 57 | 60 | 19.1 | 26.9 | 0.00 | 0.00 | 0.00 | 51 | 998.5 |
| 20260505061304 | 57 | 58 | 19.1 | 24.3 | 0.00 | 0.00 | 0.00 | 51 | 998.5 |
| 20260505060305 | 58 | 54 | 20.0 | 28.7 | 0.00 | 0.00 | 0.00 | 51 | 998.2 |
| 20260505060104 | 57 | 52 | 20.9 | 30.4 | 0.00 | 0.00 | 0.00 | 51 | 998.1 |
| 20260505055304 | 58 | 60 | 20.9 | 26.9 | 0.00 | 0.00 | 0.00 | 51 | 997.9 |
| 20260505054804 | 58 | 61 | 20.9 | 28.7 | 0.00 | 0.00 | 0.00 | 51 | 997.8 |
| 20260505054503 | 58 | 64 | 20.0 | 26.9 | 0.00 | 0.00 | 0.00 | 52 | 997.8 |
| 20260505054304 | 59 | 57 | 20.9 | 26.9 | 0.00 | 0.00 | 0.00 | 51 | 997.7 |
| 20260505053804 | 59 | 63 | 20.9 | 28.7 | 0.00 | 0.00 | 0.00 | 51 | 997.6 |
| 20260505053304 | 59 | 61 | 21.7 | 30.4 | 0.00 | 0.00 | 0.00 | 51 | 997.6 |
| 20260505053113 | 59 | 51 | 23.5 | 28.7 | 0.00 | 0.00 | 0.00 | 51 | 997.6 |
| 20260505052804 | 59 | 59 | 20.9 | 27.8 | 0.00 | 0.00 | 0.00 | 51 | 997.6 |
| 20260505051804 | 60 | 58 | 21.7 | 30.4 | 0.00 | 0.00 | 0.00 | 51 | 997.2 |
| 20260505051505 | 59 | 72 | 20.9 | 29.5 | 0.00 | 0.00 | 0.00 | 51 | 997.3 |
| 20260505051304 | 60 | 58 | 20.9 | 30.4 | 0.00 | 0.00 | 0.00 | 50 | 997.3 |
| 20260505050804 | 60 | 63 | 20.9 | 26.1 | 0.00 | 0.00 | 0.00 | 50 | 997.5 |
| 20260505050304 | 61 | 67 | 20.9 | 27.8 | 0.00 | 0.00 | 0.00 | 50 | 997.4 |
| 20260505041502 | 63 | 54 | 17.4 | 26.9 | 0.00 | 0.00 | 0.00 | 49 | 996.9 |
| 20260505041304 | 64 | 66 | 19.1 | 26.9 | 0.00 | 0.00 | 0.00 | 48 | 996.9 |
| 20260505040304 | 65 | 59 | 18.2 | 25.2 | 0.00 | 0.00 | 0.00 | 45 | 996.5 |
| 20260505040104 | 65 | 68 | 18.2 | 26.9 | 0.00 | 0.00 | 0.00 | 45 | 996.5 |
| 20260505034804 | 67 | 59 | 16.5 | 21.7 | 0.00 | 0.00 | 0.00 | 42 | 996.1 |
| 20260505034502 | 67 | 64 | 16.5 | 25.2 | 0.00 | 0.00 | 0.00 | 41 | 996.0 |
| 20260505034303 | 68 | 58 | 20.0 | 25.2 | 0.00 | 0.00 | 0.00 | 40 | 995.9 |
| 20260505033804 | 68 | 52 | 18.2 | 25.2 | 0.00 | 0.00 | 0.00 | 37 | 995.7 |
| 20260505033103 | 68 | 82 | 11.3 | 13.9 | 0.00 | 0.00 | 0.00 | 34 | 995.5 |
| 20260505032804 | 68 | 65 | 11.3 | 13.0 | 0.00 | 0.00 | 0.00 | 34 | 995.5 |
| 20260505032304 | 68 | 55 | 10.4 | 13.9 | 0.00 | 0.00 | 0.00 | 33 | 995.5 |
| 20260505031803 | 69 | 50 | 10.4 | 13.0 | 0.00 | 0.00 | 0.00 | 33 | 995.4 |
| 20260505031502 | 68 | 41 | 9.6 | 14.8 | 0.00 | 0.00 | 0.00 | 33 | 995.4 |
| 20260505030804 | 69 | 44 | 10.4 | 14.8 | 0.00 | 0.00 | 0.00 | 32 | 995.2 |
| 20260505030303 | 69 | 40 | 10.4 | 13.9 | 0.00 | 0.00 | 0.00 | 32 | 995.0 |
| 20260505025305 | 69 | 50 | 9.6 | 13.0 | 0.00 | 0.00 | 0.00 | 32 | 994.9 |
| 20260505024804 | 70 | 44 | 7.8 | 10.4 | 0.00 | 0.00 | 0.00 | 31 | 994.8 |
| 20260505024506 | 69 | 62 | 7.0 | 9.6 | 0.00 | 0.00 | 0.00 | 31 | 994.7 |
| 20260505023803 | 69 | 81 | 6.1 | 8.7 | 0.00 | 0.00 | 0.00 | 31 | 994.8 |
| 20260505023304 | 69 | 78 | 6.1 | 8.7 | 0.00 | 0.00 | 0.00 | 31 | 994.6 |
| 20260505023105 | 69 | 75 | 6.1 | 9.6 | 0.00 | 0.00 | 0.00 | 31 | 994.5 |
| 20260505022804 | 69 | 85 | 6.1 | 8.7 | 0.00 | 0.00 | 0.00 | 31 | 994.4 |
| 20260505022305 | 69 | 80 | 5.2 | 7.8 | 0.00 | 0.00 | 0.00 | 31 | 994.4 |
| 20260505021804 | 70 | 74 | 4.3 | 6.1 | 0.00 | 0.00 | 0.00 | 30 | 994.2 |
| 20260505021502 | 69 | 81 | 4.3 | 8.7 | 0.00 | 0.00 | 0.00 | 30 | 994.2 |
| 20260505021303 | 70 | 80 | 5.2 | 8.7 | 0.00 | 0.00 | 0.00 | 30 | 994.1 |
| 20260505020803 | 70 | 86 | 6.1 | 8.7 | 0.00 | 0.00 | 0.00 | 30 | 994.2 |
| 20260505015805 | 71 | 63 | 1.7 | 2.6 | 0.00 | 0.00 | 0.00 | 29 | 994.1 |
| 20260505015305 | 72 | 61 | 3.5 | 5.2 | 0.00 | 0.00 | 0.00 | 28 | 994.1 |
| 20260505014504 | 73 | 74 | 2.6 | 4.3 | 0.00 | 0.00 | 0.00 | 27 | 994.0 |
| 20260505014307 | 73 | 75 | 2.6 | 4.3 | 0.00 | 0.00 | 0.00 | 26 | 994.1 |
| 20260505013805 | 74 | 67 | 1.7 | 4.3 | 0.00 | 0.00 | 0.00 | 26 | 994.1 |
| 20260505013305 | 74 | 82 | 2.6 | 4.3 | 0.00 | 0.00 | 0.00 | 25 | 994.1 |
| 20260505013103 | 74 | 96 | 2.6 | 7.8 | 0.00 | 0.00 | 0.00 | 25 | 994.1 |
| 20260505012805 | 74 | 95 | 5.2 | 7.8 | 0.00 | 0.00 | 0.00 | 25 | 994.1 |
| 20260505012305 | 74 | 104 | 5.2 | 7.0 | 0.00 | 0.00 | 0.00 | 25 | 993.8 |
| 20260505011604 | 75 | 107 | 6.1 | 7.8 | 0.00 | 0.00 | 0.00 | 24 | 993.7 |
| 20260505011305 | 76 | 113 | 7.0 | 7.8 | 0.00 | 0.00 | 0.00 | 24 | 993.7 |
| 20260505010805 | 76 | 113 | 7.0 | 8.7 | 0.00 | 0.00 | 0.00 | 23 | 993.7 |
| 20260505010305 | 77 | 115 | 6.1 | 7.0 | 0.00 | 0.00 | 0.00 | 23 | 993.7 |
| 20260505010004 | 76 | 118 | 5.2 | 7.8 | 0.00 | 0.00 | 0.00 | 23 | 993.7 |
| 20260505005305 | 78 | 107 | 3.5 | 6.1 | 0.00 | 0.00 | 0.00 | 22 | 993.6 |
| 20260505004805 | 78 | 99 | 3.5 | 7.0 | 0.00 | 0.00 | 0.00 | 22 | 993.8 |
| 20260505004604 | 77 | 106 | 3.5 | 7.8 | 0.00 | 0.00 | 0.00 | 21 | 993.7 |
| 20260505004305 | 78 | 100 | 5.2 | 7.0 | 0.00 | 0.00 | 0.00 | 21 | 993.8 |
| 20260505003805 | 78 | 103 | 6.1 | 7.8 | 0.00 | 0.00 | 0.00 | 21 | 993.8 |
| 20260505003305 | 79 | 114 | 5.2 | 7.8 | 0.00 | 0.00 | 0.00 | 21 | 993.8 |
| 20260505003003 | 78 | 109 | 6.1 | 11.3 | 0.00 | 0.00 | 0.00 | 21 | 993.8 |
| 20260505002305 | 79 | 104 | 7.0 | 11.3 | 0.00 | 0.00 | 0.00 | 20 | 993.8 |
| 20260505001804 | 80 | 100 | 7.8 | 10.4 | 0.00 | 0.00 | 0.00 | 20 | 993.8 |
| 20260505001604 | 79 | 104 | 7.8 | 13.0 | 0.00 | 0.00 | 0.00 | 20 | 993.8 |
| 20260505001305 | 80 | 97 | 9.6 | 13.0 | 0.00 | 0.00 | 0.00 | 20 | 993.8 |
| 20260505000805 | 80 | 97 | 10.4 | 13.9 | 0.00 | 0.00 | 0.00 | 20 | 993.8 |
| 20260505000305 | 80 | 97 | 8.7 | 13.0 | 0.00 | 0.00 | 0.00 | 20 | 993.8 |
| 20260505000110 | 80 | 111 | 8.7 | 14.8 | 0.00 | 0.00 | 0.00 | 20 | 993.8 |
| 20260504235804 | 80 | 97 | 10.4 | 13.9 | 0.00 | 0.00 | 0.00 | 20 | 993.8 |
| 20260504234805 | 80 | 95 | 8.7 | 13.9 | 0.00 | 0.00 | 0.00 | 20 | 994.0 |
| 20260504234504 | 80 | 92 | 10.4 | 14.8 | 0.00 | 0.00 | 0.00 | 20 | 994.0 |
| 20260504234305 | 80 | 95 | 10.4 | 14.8 | 0.00 | 0.00 | 0.00 | 20 | 994.2 |
| 20260504233805 | 80 | 93 | 10.4 | 14.8 | 0.00 | 0.00 | 0.00 | 20 | 994.0 |
| 20260504233104 | 80 | 104 | 9.6 | 15.6 | 0.00 | 0.00 | 0.00 | 21 | 993.7 |
| 20260504232805 | 80 | 97 | 10.4 | 13.9 | 0.00 | 0.00 | 0.00 | 21 | 993.7 |
| 20260504232305 | 81 | 100 | 11.3 | 15.6 | 0.00 | 0.00 | 0.00 | 21 | 993.8 |
| 20260504231805 | 81 | 88 | 12.2 | 17.4 | 0.00 | 0.00 | 0.00 | 20 | 993.7 |
| 20260504231513 | 81 | 91 | 13.0 | 18.2 | 0.00 | 0.00 | 0.00 | 20 | 993.6 |
| 20260504231304 | 81 | 91 | 12.2 | 18.2 | 0.00 | 0.00 | 0.00 | 20 | 993.8 |
| 20260504230804 | 81 | 72 | 11.3 | 14.8 | 0.00 | 0.00 | 0.00 | 20 | 993.7 |
| 20260504230305 | 82 | 79 | 11.3 | 13.9 | 0.00 | 0.00 | 0.00 | 20 | 993.6 |
| 20260504230104 | 81 | 72 | 10.4 | 15.6 | 0.00 | 0.00 | 0.00 | 19 | 993.7 |
| 20260504225805 | 82 | 89 | 8.7 | 15.6 | 0.00 | 0.00 | 0.00 | 18 | 993.7 |
| 20260504225306 | 83 | 100 | 10.4 | 13.0 | 0.00 | 0.00 | 0.00 | 17 | 993.5 |
| 20260504224805 | 83 | 100 | 6.1 | 11.3 | 0.00 | 0.00 | 0.00 | 16 | 993.4 |
| 20260504224502 | 83 | 127 | 7.8 | 11.3 | 0.00 | 0.00 | 0.00 | 17 | 993.5 |
| 20260504224305 | 83 | 105 | 8.7 | 11.3 | 0.00 | 0.00 | 0.00 | 16 | 993.6 |
| 20260504223805 | 84 | 113 | 7.0 | 8.7 | 0.00 | 0.00 | 0.00 | 16 | 993.5 |
| 20260504223103 | 84 | 102 | 6.1 | 9.6 | 0.00 | 0.00 | 0.00 | 16 | 993.5 |
| 20260504222804 | 85 | 112 | 6.1 | 8.7 | 0.00 | 0.00 | 0.00 | 15 | 993.5 |
| 20260504222305 | 85 | 139 | 3.5 | 7.8 | 0.00 | 0.00 | 0.00 | 15 | 993.6 |
| 20260504221505 | 85 | 219 | 1.7 | 4.3 | 0.00 | 0.00 | 0.00 | 15 | 993.6 |
| 20260504221304 | 85 | 199 | 1.7 | 2.6 | 0.00 | 0.00 | 0.00 | 15 | 993.7 |
| 20260504220805 | 86 | 156 | 3.5 | 5.2 | 0.00 | 0.00 | 0.00 | 15 | 993.6 |
| 20260504215805 | 86 | 288 | 5.2 | 10.4 | 0.00 | 0.00 | 0.00 | 15 | 993.7 |
| 20260504215305 | 85 | 277 | 6.1 | 10.4 | 0.00 | 0.00 | 0.00 | 15 | 993.8 |
| 20260504214805 | 86 | 325 | 5.2 | 8.7 | 0.00 | 0.00 | 0.00 | 14 | 993.9 |
| 20260504214502 | 85 | 337 | 3.5 | 7.0 | 0.00 | 0.00 | 0.00 | 14 | 994.0 |
| 20260504214304 | 86 | 326 | 3.5 | 7.0 | 0.00 | 0.00 | 0.00 | 14 | 994.0 |
| 20260504213804 | 86 | 232 | 5.2 | 8.7 | 0.00 | 0.00 | 0.00 | 14 | 994.0 |
| 20260504213104 | 85 | 301 | 1.7 | 7.0 | 0.00 | 0.00 | 0.00 | 15 | 994.0 |
| 20260504212804 | 86 | 34 | 1.7 | 7.0 | 0.00 | 0.00 | 0.00 | 15 | 994.3 |
| 20260504211804 | 85 | 279 | 2.6 | 6.1 | 0.00 | 0.00 | 0.00 | 15 | 994.5 |
| 20260504211511 | 85 | 295 | 2.6 | 6.1 | 0.00 | 0.00 | 0.00 | 14 | 994.5 |
| 20260504211305 | 85 | 20 | 0.9 | 1.7 | 0.00 | 0.00 | 0.00 | 14 | 994.6 |
| 20260504210805 | 85 | 266 | 0.9 | 4.3 | 0.00 | 0.00 | 0.00 | 14 | 994.7 |
| 20260504210304 | 85 | 256 | 1.7 | 2.6 | 0.00 | 0.00 | 0.00 | 14 | 994.7 |
| 20260504210111 | 85 | 231 | 0.9 | 4.3 | 0.00 | 0.00 | 0.00 | 14 | 994.7 |
| 20260504205805 | 85 | 27 | 1.7 | 4.3 | 0.00 | 0.00 | 0.00 | 14 | 994.7 |
| 20260504205305 | 85 | 340 | 1.7 | 4.3 | 0.00 | 0.00 | 0.00 | 14 | 994.8 |
| 20260504204805 | 85 | 334 | 2.6 | 6.1 | 0.00 | 0.00 | 0.00 | 14 | 994.8 |
| 20260504204505 | 84 | 324 | 2.6 | 8.7 | 0.00 | 0.00 | 0.00 | 14 | 994.8 |
| 20260504204304 | 85 | 353 | 4.3 | 8.7 | 0.00 | 0.00 | 0.00 | 14 | 994.9 |
| 20260504203805 | 85 | 328 | 7.0 | 10.4 | 0.00 | 0.00 | 0.00 | 13 | 994.9 |
| 20260504203105 | 85 | 338 | 6.1 | 11.3 | 0.00 | 0.00 | 0.00 | 14 | 995.0 |
| 20260504202805 | 86 | 263 | 2.6 | 6.1 | 0.00 | 0.00 | 0.00 | 14 | 995.0 |
| 20260504201805 | 86 | 276 | 6.1 | 12.2 | 0.00 | 0.00 | 0.00 | 13 | 995.1 |
| 20260504201509 | 86 | 255 | 8.7 | 12.2 | 0.00 | 0.00 | 0.00 | 13 | 995.1 |
| 20260504201305 | 87 | 263 | 7.0 | 10.4 | 0.00 | 0.00 | 0.00 | 13 | 995.1 |
| 20260504200305 | 87 | 272 | 7.8 | 13.0 | 0.00 | 0.00 | 0.00 | 13 | 995.3 |
| 20260504200105 | 87 | 281 | 7.0 | 13.9 | 0.00 | 0.00 | 0.00 | 13 | 995.3 |
| 20260504195805 | 87 | 265 | 7.0 | 11.3 | 0.00 | 0.00 | 0.00 | 13 | 995.4 |
| 20260504195305 | 87 | 298 | 8.7 | 12.2 | 0.00 | 0.00 | 0.00 | 13 | 995.5 |
| 20260504194805 | 88 | 250 | 4.3 | 11.3 | 0.00 | 0.00 | 0.00 | 13 | 995.5 |
| 20260504194503 | 87 | 266 | 1.7 | 12.2 | 0.00 | 0.00 | 0.00 | 13 | 995.5 |
| 20260504194305 | 88 | 246 | 1.7 | 7.8 | 0.00 | 0.00 | 0.00 | 13 | 995.6 |
| 20260504193805 | 88 | 273 | 6.1 | 12.2 | 0.00 | 0.00 | 0.00 | 13 | 995.7 |
| 20260504193104 | 87 | 287 | 7.8 | 13.0 | 0.00 | 0.00 | 0.00 | 13 | 995.7 |
| 20260504192805 | 87 | 306 | 4.3 | 11.3 | 0.00 | 0.00 | 0.00 | 13 | 995.7 |
| 20260504192305 | 87 | 265 | 4.3 | 11.3 | 0.00 | 0.00 | 0.00 | 13 | 995.9 |
| 20260504191804 | 86 | 276 | 7.0 | 10.4 | 0.00 | 0.00 | 0.00 | 14 | 996.0 |
| 20260504191503 | 85 | 249 | 3.5 | 9.6 | 0.00 | 0.00 | 0.00 | 14 | 996.0 |
| 20260504191305 | 86 | 172 | 0.9 | 2.6 | 0.00 | 0.00 | 0.00 | 14 | 996.0 |
| 20260504190804 | 85 | 243 | 1.7 | 6.1 | 0.00 | 0.00 | 0.00 | 14 | 996.1 |
| 20260504190304 | 85 | 270 | 5.2 | 8.7 | 0.00 | 0.00 | 0.00 | 14 | 996.2 |
| 20260504190130 | 85 | 279 | 5.2 | 17.4 | 0.00 | 0.00 | 0.00 | 14 | 996.2 |
| 20260504185805 | 85 | 309 | 7.8 | 17.4 | 0.00 | 0.00 | 0.00 | 14 | 996.3 |
| 20260504184804 | 85 | 93 | 1.7 | 7.0 | 0.00 | 0.00 | 0.00 | 13 | 996.3 |
| 20260504184509 | 85 | 289 | 5.2 | 7.8 | 0.00 | 0.00 | 0.00 | 13 | 996.4 |
| 20260504184305 | 85 | 289 | 4.3 | 7.8 | 0.00 | 0.00 | 0.00 | 14 | 996.4 |
| 20260504183805 | 85 | 338 | 2.6 | 6.1 | 0.00 | 0.00 | 0.00 | 13 | 996.6 |
| 20260504183305 | 85 | 269 | 2.6 | 4.3 | 0.00 | 0.00 | 0.00 | 13 | 996.6 |
| 20260504183103 | 85 | 257 | 1.7 | 11.3 | 0.00 | 0.00 | 0.00 | 13 | 996.7 |
| 20260504181805 | 85 | 284 | 7.8 | 11.3 | 0.00 | 0.00 | 0.00 | 14 | 997.0 |
| 20260504181503 | 84 | 279 | 3.5 | 9.6 | 0.00 | 0.00 | 0.00 | 13 | 997.0 |
| 20260504181305 | 85 | 296 | 4.3 | 8.7 | 0.00 | 0.00 | 0.00 | 13 | 997.1 |
| 20260504180805 | 85 | 274 | 6.1 | 10.4 | 0.00 | 0.00 | 0.00 | 14 | 997.2 |
| 20260504180304 | 84 | 286 | 7.8 | 11.3 | 0.00 | 0.00 | 0.00 | 15 | 997.2 |
| 20260504180210 | 84 | 282 | 6.1 | 11.3 | 0.00 | 0.00 | 0.00 | 15 | 997.3 |
| 20260504175304 | 84 | 304 | 8.7 | 12.2 | 0.00 | 0.00 | 0.00 | 16 | 997.5 |
| 20260504174804 | 83 | 287 | 7.8 | 11.3 | 0.00 | 0.00 | 0.00 | 16 | 997.5 |
| 20260504174502 | 83 | 249 | 7.8 | 15.6 | 0.00 | 0.00 | 0.00 | 16 | 997.5 |
| 20260504174304 | 83 | 267 | 8.7 | 15.6 | 0.00 | 0.00 | 0.00 | 17 | 997.6 |
| 20260504173805 | 82 | 276 | 8.7 | 12.2 | 0.00 | 0.00 | 0.00 | 16 | 997.7 |
| 20260504173304 | 82 | 282 | 9.6 | 12.2 | 0.00 | 0.00 | 0.00 | 16 | 997.7 |
| 20260504173127 | 82 | 275 | 9.6 | 13.0 | 0.00 | 0.00 | 0.00 | 16 | 997.8 |
| 20260504172805 | 82 | 297 | 7.8 | 12.2 | 0.00 | 0.00 | 0.00 | 16 | 997.8 |
| 20260504171805 | 82 | 301 | 8.7 | 13.9 | 0.00 | 0.00 | 0.00 | 17 | 997.9 |
| 20260504171503 | 82 | 324 | 8.7 | 13.0 | 0.00 | 0.00 | 0.00 | 18 | 997.9 |
| 20260504171304 | 82 | 306 | 8.7 | 13.0 | 0.00 | 0.00 | 0.00 | 18 | 998.0 |
| 20260504170805 | 82 | 296 | 9.6 | 13.0 | 0.00 | 0.00 | 0.00 | 19 | 998.0 |
| 20260504170304 | 81 | 290 | 8.7 | 13.0 | 0.00 | 0.00 | 0.00 | 19 | 998.0 |
| 20260504170104 | 81 | 285 | 8.7 | 13.0 | 0.00 | 0.00 | 0.00 | 19 | 998.0 |
| 20260504160304 | 77 | 272 | 8.7 | 11.3 | 0.00 | 0.00 | 0.00 | 25 | 998.7 |
| 20260504150805 | 70 | 290 | 11.3 | 15.6 | 0.00 | 0.00 | 0.00 | 31 | 999.2 |
| 20260504150305 | 69 | 299 | 11.3 | 15.6 | 0.00 | 0.00 | 0.00 | 31 | 999.3 |
| 20260504141305 | 61 | 300 | 11.3 | 14.8 | 0.00 | 0.00 | 0.00 | 45 | 999.7 |
| 20260504140304 | 58 | 303 | 11.3 | 15.6 | 0.00 | 0.00 | 0.00 | 48 | 999.6 |
| 20260504130804 | 47 | 294 | 8.7 | 11.3 | 0.00 | 0.00 | 0.00 | 71 | 999.6 |
| 20260504130305 | 46 | 303 | 7.0 | 10.4 | 0.00 | 0.00 | 0.00 | 72 | 999.6 |
| 20260504120304 | 41 | 4 | 2.6 | 6.1 | 0.00 | 0.00 | 0.00 | 75 | 999.1 |
| 20260504120115 | 41 | 303 | 3.5 | 7.8 | 0.00 | 0.00 | 0.00 | 75 | 999.0 |
| 20260504110103 | 41 | 307 | 2.6 | 7.0 | 0.00 | 0.00 | 0.00 | 72 | 998.5 |
| 20260504100103 | 43 | 4 | 1.7 | 4.3 | 0.00 | 0.00 | 0.00 | 71 | 998.8 |
| 20260504090112 | 43 | 316 | 2.6 | 4.3 | 0.00 | 0.00 | 0.00 | 64 | 998.9 |
| 20260504081804 | 46 | 345 | 1.7 | 2.6 | 0.00 | 0.00 | 0.00 | 60 | 999.2 |
| 20260504081503 | 46 | 323 | 0.0 | 2.6 | 0.00 | 0.00 | 0.00 | 59 | 999.2 |
| 20260504081304 | 47 | 322 | 0.9 | 2.6 | 0.00 | 0.00 | 0.00 | 58 | 999.3 |
| 20260504080804 | 47 | 295 | 1.7 | 2.6 | 0.00 | 0.00 | 0.00 | 57 | 999.3 |
| 20260504080304 | 48 | 306 | 1.7 | 2.6 | 0.00 | 0.00 | 0.00 | 57 | 999.2 |